Shoyo Maru — JD2209 — position and weather

sailwx.info

Track history (hours):
 
Tides and Currents Weather Stations Pressure Air Temp Water Temp Dewpoint Dewpoint Depression Visibility Wind Speed Wind Dir Waves Ship Positions

Shoyo Maru

Last reported at 2017-Nov-09 09:09 UTC. Time now 2017-Nov-18 04:54 UTC.
Position N 34°04' E 134°60'.
Warning: this ship's position is 8 days out of date.

Length 33 m; draft 4.3 m.

Type: Tug. MMSI: 432543000.

Date/timePositionNaut miles runAvg speedWind from/ knotsBaromVisibWave heightAir tempDewpointWater temp
2017-Nov-09 09:09N 34°04' E 134°60'212.2
2017-Nov-09 09:00N 34°05' E 134°60'712.3
2017-Nov-09 08:28N 34°12' E 134°58'1211.6
2017-Nov-09 07:28N 34°23' E 135°02'612.1
2017-Nov-09 07:00N 34°27' E 135°07'612.3
2017-Nov-09 06:30N 34°31' E 135°13'611.9
2017-Nov-09 06:00N 34°34' E 135°19'510.8
2017-Nov-09 05:30N 34°38' E 135°23'3 5.2
2017-Nov-09 05:00N 34°39' E 135°26'0 0.0
2017-Nov-09 04:30N 34°39' E 135°26'0 0.0
2017-Nov-09 03:59N 34°39' E 135°26'0 0.0
2017-Nov-09 03:30N 34°39' E 135°26'0 0.0
2017-Nov-09 02:59N 34°39' E 135°26'0 0.0
2017-Nov-09 02:29N 34°39' E 135°26'0 0.0
2017-Nov-09 01:59N 34°39' E 135°26'0 0.9
2017-Nov-09 01:29N 34°40' E 135°26'0 0.0
2017-Nov-09 00:59N 34°40' E 135°26'0 0.2
2017-Nov-09 00:28N 34°40' E 135°26'0 0.0
2017-Nov-08 23:54N 34°40' E 135°26'0 0.0
2017-Nov-08 23:27N 34°40' E 135°26'0 0.0
2017-Nov-08 23:00N 34°40' E 135°26'0 0.0
2017-Nov-08 22:29N 34°40' E 135°26'0 0.0
2017-Nov-08 22:00N 34°40' E 135°26'0 0.0
2017-Nov-08 21:30N 34°40' E 135°26'0 0.0
2017-Nov-08 21:00N 34°40' E 135°26'0 0.0
2017-Nov-08 20:30N 34°40' E 135°26'0 0.0
2017-Nov-08 19:59N 34°40' E 135°26'0 0.0
2017-Nov-08 19:30N 34°40' E 135°26'0 0.0
2017-Nov-08 19:00N 34°40' E 135°26'0 0.0
2017-Nov-08 18:30N 34°40' E 135°26'0 0.0
2017-Nov-08 18:00N 34°40' E 135°26'0 0.0
2017-Nov-08 17:30N 34°40' E 135°26'0 0.0
2017-Nov-08 16:56N 34°40' E 135°26'1 3.3
2017-Nov-08 16:30N 34°39' E 135°25'510.9
2017-Nov-08 16:00N 34°38' E 135°18'611.4
2017-Nov-08 15:30N 34°35' E 135°12'612.0
2017-Nov-08 15:00N 34°35' E 135°05'5 9.9
2017-Nov-08 14:30N 34°37' E 134°59'6 0.2
2017-Nov-07 12:23N 34°36' E 134°53'3 8.7
2017-Nov-07 12:00N 34°37' E 134°56'4 8.1
2017-Nov-07 11:30N 34°37' E 135°01'3 6.8
2017-Nov-07 11:00N 34°35' E 135°05'2 4.8
2017-Nov-07 10:30N 34°34' E 135°07'2 3.2
2017-Nov-07 10:00N 34°32' E 135°06'2 3.1
2017-Nov-07 09:30N 34°31' E 135°06'2 3.3
2017-Nov-07 08:59N 34°29' E 135°05'2 3.3
2017-Nov-07 08:28N 34°27' E 135°05'2 2.9
2017-Nov-07 07:49N 34°26' E 135°04'4 3.3
2017-Nov-07 06:39N 34°22' E 135°02'1 3.5
2017-Nov-07 06:28N 34°22' E 135°02'4 3.5
2017-Nov-07 05:19N 34°18' E 134°59'2 5.2
2017-Nov-07 05:00N 34°16' E 134°59'2 4.5
2017-Nov-07 04:31N 34°14' E 134°60'3 5.0
2017-Nov-07 04:00N 34°12' E 135°01'2 5.0
2017-Nov-07 03:30N 34°09' E 135°00'4 7.2
2017-Nov-07 03:00N 34°06' E 135°00'1 2.8
2017-Nov-07 02:29N 34°05' E 134°58'3 6.2
2017-Nov-07 01:56N 34°02' E 134°58'213 5.4
2017-Nov-05 10:34N 34°48' E 139°10'1 9.6
2017-Nov-05 10:30N 34°48' E 139°10'5 9.3
2017-Nov-05 09:57N 34°53' E 139°13'12 7.3
2017-Nov-05 08:19N 35°00' E 139°25'2 7.0
2017-Nov-05 08:00N 35°01' E 139°27'3 7.1
2017-Nov-05 07:30N 35°02' E 139°31'4 7.7
2017-Nov-05 07:00N 35°03' E 139°36'4 8.8
2017-Nov-05 06:30N 35°05' E 139°41'4 8.0
2017-Nov-05 06:00N 35°08' E 139°43'3 5.5
2017-Nov-05 05:30N 35°11' E 139°45'3 6.2
2017-Nov-05 05:00N 35°14' E 139°46'3 6.6
2017-Nov-05 04:30N 35°17' E 139°45'4 7.1
2017-Nov-05 04:00N 35°20' E 139°43'3 6.2
2017-Nov-05 03:30N 35°23' E 139°42'2 5.0
2017-Nov-05 03:00N 35°25' E 139°44'3 5.8
2017-Nov-05 02:30N 35°26' E 139°47'3 6.0
2017-Nov-05 02:00N 35°24' E 139°50'0 0.9
2017-Nov-05 01:29N 35°24' E 139°51'0 0.1
2017-Nov-05 01:00N 35°24' E 139°51'0 0.1
2017-Nov-05 00:30N 35°24' E 139°50'0 0.5
2017-Nov-05 00:00N 35°24' E 139°51'0 0.0
2017-Nov-04 23:30N 35°24' E 139°51'0 0.0
2017-Nov-04 23:00N 35°24' E 139°51'0 0.0
2017-Nov-04 22:30N 35°24' E 139°51'0 0.0
2017-Nov-04 22:00N 35°24' E 139°51'0 0.1
2017-Nov-04 21:30N 35°24' E 139°51'0 0.1
2017-Nov-04 21:00N 35°24' E 139°51'0 0.0
2017-Nov-04 20:30N 35°24' E 139°51'0 0.0
2017-Nov-04 20:00N 35°24' E 139°51'0 0.0
2017-Nov-04 19:30N 35°24' E 139°51'0 0.0
2017-Nov-04 19:00N 35°24' E 139°51'0 0.0
2017-Nov-04 18:30N 35°24' E 139°51'0 0.0
2017-Nov-04 18:00N 35°24' E 139°51'0 0.0
2017-Nov-04 17:30N 35°24' E 139°51'0 0.0
2017-Nov-04 17:00N 35°24' E 139°51'0 0.0
2017-Nov-04 16:30N 35°24' E 139°51'0 0.0
2017-Nov-04 16:00N 35°24' E 139°51'0 0.0
2017-Nov-04 15:30N 35°24' E 139°51'0 0.0
2017-Nov-04 15:00N 35°24' E 139°51'0 0.0
2017-Nov-04 14:30N 35°24' E 139°51'0 0.0
2017-Nov-04 14:00N 35°24' E 139°51'0 0.0
2017-Nov-04 13:30N 35°24' E 139°51'0 0.0
2017-Nov-04 13:00N 35°24' E 139°51'0 0.0
2017-Nov-04 12:31N 35°24' E 139°51'0 0.0
2017-Nov-04 12:00N 35°24' E 139°51'0 0.0
2017-Nov-04 11:30N 35°24' E 139°51'0 0.0
2017-Nov-04 11:00N 35°24' E 139°51'0 0.0
2017-Nov-04 10:30N 35°24' E 139°51'0 0.0
2017-Nov-04 10:00N 35°24' E 139°51'0 0.1
2017-Nov-04 09:30N 35°24' E 139°51'0 0.9
2017-Nov-04 09:00N 35°23' E 139°50'0 0.3
2017-Nov-04 08:30N 35°23' E 139°51'0 0.1
2017-Nov-04 08:00N 35°24' E 139°51'0 0.1
2017-Nov-04 07:30N 35°24' E 139°50'0 0.0
2017-Nov-04 07:00N 35°24' E 139°50'0 0.0
2017-Nov-04 06:30N 35°24' E 139°50'0 0.0
2017-Nov-04 06:00N 35°24' E 139°50'0 0.0
2017-Nov-04 05:30N 35°24' E 139°50'0 0.0
2017-Nov-04 05:00N 35°24' E 139°50'0 0.0
2017-Nov-04 04:30N 35°24' E 139°50'0 0.0
2017-Nov-04 04:00N 35°24' E 139°50'0 0.0
2017-Nov-04 03:30N 35°24' E 139°50'0 0.0
2017-Nov-04 03:00N 35°24' E 139°50'0 0.1
2017-Nov-04 02:30N 35°24' E 139°51'0 0.1
2017-Nov-04 02:00N 35°24' E 139°50'0 0.0
2017-Nov-04 01:30N 35°24' E 139°50'0 0.0
2017-Nov-04 01:00N 35°24' E 139°50'0 0.0
2017-Nov-04 00:30N 35°24' E 139°50'0 0.0
2017-Nov-04 00:00N 35°24' E 139°50'0 0.1
2017-Nov-03 23:30N 35°24' E 139°51'0 0.0
2017-Nov-03 23:00N 35°24' E 139°51'0 0.0
2017-Nov-03 22:30N 35°24' E 139°51'0 0.0
2017-Nov-03 22:00N 35°24' E 139°51'0 0.0
2017-Nov-03 21:30N 35°24' E 139°51'0 0.0
2017-Nov-03 21:00N 35°24' E 139°51'0 0.0
2017-Nov-03 20:30N 35°24' E 139°51'0 0.0
2017-Nov-03 20:00N 35°24' E 139°51'0 0.0
2017-Nov-03 19:30N 35°24' E 139°51'0 0.0
2017-Nov-03 19:00N 35°24' E 139°51'0 0.1
2017-Nov-03 18:30N 35°24' E 139°51'0 0.2
2017-Nov-03 18:00N 35°24' E 139°50'3 5.2
2017-Nov-03 17:30N 35°22' E 139°53'1 0.0
2017-Nov-02 08:38N 35°22' E 139°54'0 0.3
2017-Nov-02 08:31N 35°22' E 139°54'0 0.0
2017-Nov-02 08:00N 35°22' E 139°54'1 2.1
2017-Nov-02 07:28N 35°22' E 139°52'2 4.6
2017-Nov-02 07:00N 35°23' E 139°50'0 0.7
2017-Nov-02 06:30N 35°24' E 139°50'0 0.0
2017-Nov-02 05:59N 35°24' E 139°50'0 0.0
2017-Nov-02 05:30N 35°24' E 139°50'0 0.0
2017-Nov-02 05:00N 35°24' E 139°50'0 0.0
2017-Nov-02 04:29N 35°24' E 139°50'0 0.2
2017-Nov-02 04:00N 35°24' E 139°50'1 1.7
2017-Nov-02 03:30N 35°23' E 139°49'2 4.7
2017-Nov-02 03:00N 35°23' E 139°46'3 6.8
2017-Nov-02 02:30N 35°20' E 139°44'4 6.9
2017-Nov-02 02:00N 35°17' E 139°46'3 6.4
2017-Nov-02 01:30N 35°13' E 139°47'3 6.2
2017-Nov-02 01:00N 35°10' E 139°47'3 5.6
2017-Nov-02 00:30N 35°08' E 139°47'3 5.5
2017-Nov-02 00:00N 35°05' E 139°46'1 2.4
2017-Nov-01 23:30N 35°04' E 139°45'4 7.4
2017-Nov-01 23:00N 35°01' E 139°42'4 6.8
2017-Nov-01 22:29N 34°59' E 139°39'4 8.5
2017-Nov-01 21:58N 34°57' E 139°34'  
Track history (hours):
 
Tides and Currents Weather Stations Pressure Air Temp Water Temp Dewpoint Dewpoint Depression Visibility Wind Speed Wind Dir Waves Ship Positions

Shoyo Maru

Last reported at 2017-Nov-09 09:09 UTC. Time now 2017-Nov-18 04:54 UTC.
Position N 34°04' E 134°60'.
Warning: this ship's position is 8 days out of date.

Length 33 m; draft 4.3 m.

Type: Tug. MMSI: 432543000.

Date/timePositionNaut miles runAvg speedWind from/ knotsBaromVisibWave heightAir tempDewpointWater temp
2017-Nov-09 09:09N 34°04' E 134°60'212.2
2017-Nov-09 09:00N 34°05' E 134°60'712.3
2017-Nov-09 08:28N 34°12' E 134°58'1211.6
2017-Nov-09 07:28N 34°23' E 135°02'612.1
2017-Nov-09 07:00N 34°27' E 135°07'612.3
2017-Nov-09 06:30N 34°31' E 135°13'611.9
2017-Nov-09 06:00N 34°34' E 135°19'510.8
2017-Nov-09 05:30N 34°38' E 135°23'3 5.2
2017-Nov-09 05:00N 34°39' E 135°26'0 0.0
2017-Nov-09 04:30N 34°39' E 135°26'0 0.0
2017-Nov-09 03:59N 34°39' E 135°26'0 0.0
2017-Nov-09 03:30N 34°39' E 135°26'0 0.0
2017-Nov-09 02:59N 34°39' E 135°26'0 0.0
2017-Nov-09 02:29N 34°39' E 135°26'0 0.0
2017-Nov-09 01:59N 34°39' E 135°26'0 0.9
2017-Nov-09 01:29N 34°40' E 135°26'0 0.0
2017-Nov-09 00:59N 34°40' E 135°26'0 0.2
2017-Nov-09 00:28N 34°40' E 135°26'0 0.0
2017-Nov-08 23:54N 34°40' E 135°26'0 0.0
2017-Nov-08 23:27N 34°40' E 135°26'0 0.0
2017-Nov-08 23:00N 34°40' E 135°26'0 0.0
2017-Nov-08 22:29N 34°40' E 135°26'0 0.0
2017-Nov-08 22:00N 34°40' E 135°26'0 0.0
2017-Nov-08 21:30N 34°40' E 135°26'0 0.0
2017-Nov-08 21:00N 34°40' E 135°26'0 0.0
2017-Nov-08 20:30N 34°40' E 135°26'0 0.0
2017-Nov-08 19:59N 34°40' E 135°26'0 0.0
2017-Nov-08 19:30N 34°40' E 135°26'0 0.0
2017-Nov-08 19:00N 34°40' E 135°26'0 0.0
2017-Nov-08 18:30N 34°40' E 135°26'0 0.0
2017-Nov-08 18:00N 34°40' E 135°26'0 0.0
2017-Nov-08 17:30N 34°40' E 135°26'0 0.0
2017-Nov-08 16:56N 34°40' E 135°26'1 3.3
2017-Nov-08 16:30N 34°39' E 135°25'510.9
2017-Nov-08 16:00N 34°38' E 135°18'611.4
2017-Nov-08 15:30N 34°35' E 135°12'612.0
2017-Nov-08 15:00N 34°35' E 135°05'5 9.9
2017-Nov-08 14:30N 34°37' E 134°59'6 0.2
2017-Nov-07 12:23N 34°36' E 134°53'3 8.7
2017-Nov-07 12:00N 34°37' E 134°56'4 8.1
2017-Nov-07 11:30N 34°37' E 135°01'3 6.8
2017-Nov-07 11:00N 34°35' E 135°05'2 4.8
2017-Nov-07 10:30N 34°34' E 135°07'2 3.2
2017-Nov-07 10:00N 34°32' E 135°06'2 3.1
2017-Nov-07 09:30N 34°31' E 135°06'2 3.3
2017-Nov-07 08:59N 34°29' E 135°05'2 3.3
2017-Nov-07 08:28N 34°27' E 135°05'2 2.9
2017-Nov-07 07:49N 34°26' E 135°04'4 3.3
2017-Nov-07 06:39N 34°22' E 135°02'1 3.5
2017-Nov-07 06:28N 34°22' E 135°02'4 3.5
2017-Nov-07 05:19N 34°18' E 134°59'2 5.2
2017-Nov-07 05:00N 34°16' E 134°59'2 4.5
2017-Nov-07 04:31N 34°14' E 134°60'3 5.0
2017-Nov-07 04:00N 34°12' E 135°01'2 5.0
2017-Nov-07 03:30N 34°09' E 135°00'4 7.2
2017-Nov-07 03:00N 34°06' E 135°00'1 2.8
2017-Nov-07 02:29N 34°05' E 134°58'3 6.2
2017-Nov-07 01:56N 34°02' E 134°58'213 5.4
2017-Nov-05 10:34N 34°48' E 139°10'1 9.6
2017-Nov-05 10:30N 34°48' E 139°10'5 9.3
2017-Nov-05 09:57N 34°53' E 139°13'12 7.3
2017-Nov-05 08:19N 35°00' E 139°25'2 7.0
2017-Nov-05 08:00N 35°01' E 139°27'3 7.1
2017-Nov-05 07:30N 35°02' E 139°31'4 7.7
2017-Nov-05 07:00N 35°03' E 139°36'4 8.8
2017-Nov-05 06:30N 35°05' E 139°41'4 8.0
2017-Nov-05 06:00N 35°08' E 139°43'3 5.5
2017-Nov-05 05:30N 35°11' E 139°45'3 6.2
2017-Nov-05 05:00N 35°14' E 139°46'3 6.6
2017-Nov-05 04:30N 35°17' E 139°45'4 7.1
2017-Nov-05 04:00N 35°20' E 139°43'3 6.2
2017-Nov-05 03:30N 35°23' E 139°42'2 5.0
2017-Nov-05 03:00N 35°25' E 139°44'3 5.8
2017-Nov-05 02:30N 35°26' E 139°47'3 6.0
2017-Nov-05 02:00N 35°24' E 139°50'0 0.9
2017-Nov-05 01:29N 35°24' E 139°51'0 0.1
2017-Nov-05 01:00N 35°24' E 139°51'0 0.1
2017-Nov-05 00:30N 35°24' E 139°50'0 0.5
2017-Nov-05 00:00N 35°24' E 139°51'0 0.0
2017-Nov-04 23:30N 35°24' E 139°51'0 0.0
2017-Nov-04 23:00N 35°24' E 139°51'0 0.0
2017-Nov-04 22:30N 35°24' E 139°51'0 0.0
2017-Nov-04 22:00N 35°24' E 139°51'0 0.1
2017-Nov-04 21:30N 35°24' E 139°51'0 0.1
2017-Nov-04 21:00N 35°24' E 139°51'0 0.0
2017-Nov-04 20:30N 35°24' E 139°51'0 0.0
2017-Nov-04 20:00N 35°24' E 139°51'0 0.0
2017-Nov-04 19:30N 35°24' E 139°51'0 0.0
2017-Nov-04 19:00N 35°24' E 139°51'0 0.0
2017-Nov-04 18:30N 35°24' E 139°51'0 0.0
2017-Nov-04 18:00N 35°24' E 139°51'0 0.0
2017-Nov-04 17:30N 35°24' E 139°51'0 0.0
2017-Nov-04 17:00N 35°24' E 139°51'0 0.0
2017-Nov-04 16:30N 35°24' E 139°51'0 0.0
2017-Nov-04 16:00N 35°24' E 139°51'0 0.0
2017-Nov-04 15:30N 35°24' E 139°51'0 0.0
2017-Nov-04 15:00N 35°24' E 139°51'0 0.0
2017-Nov-04 14:30N 35°24' E 139°51'0 0.0
2017-Nov-04 14:00N 35°24' E 139°51'0 0.0
2017-Nov-04 13:30N 35°24' E 139°51'0 0.0
2017-Nov-04 13:00N 35°24' E 139°51'0 0.0
2017-Nov-04 12:31N 35°24' E 139°51'0 0.0
2017-Nov-04 12:00N 35°24' E 139°51'0 0.0
2017-Nov-04 11:30N 35°24' E 139°51'0 0.0
2017-Nov-04 11:00N 35°24' E 139°51'0 0.0
2017-Nov-04 10:30N 35°24' E 139°51'0 0.0
2017-Nov-04 10:00N 35°24' E 139°51'0 0.1
2017-Nov-04 09:30N 35°24' E 139°51'0 0.9
2017-Nov-04 09:00N 35°23' E 139°50'0 0.3
2017-Nov-04 08:30N 35°23' E 139°51'0 0.1
2017-Nov-04 08:00N 35°24' E 139°51'0 0.1
2017-Nov-04 07:30N 35°24' E 139°50'0 0.0
2017-Nov-04 07:00N 35°24' E 139°50'0 0.0
2017-Nov-04 06:30N 35°24' E 139°50'0 0.0
2017-Nov-04 06:00N 35°24' E 139°50'0 0.0
2017-Nov-04 05:30N 35°24' E 139°50'0 0.0
2017-Nov-04 05:00N 35°24' E 139°50'0 0.0
2017-Nov-04 04:30N 35°24' E 139°50'0 0.0
2017-Nov-04 04:00N 35°24' E 139°50'0 0.0
2017-Nov-04 03:30N 35°24' E 139°50'0 0.0
2017-Nov-04 03:00N 35°24' E 139°50'0 0.1
2017-Nov-04 02:30N 35°24' E 139°51'0 0.1
2017-Nov-04 02:00N 35°24' E 139°50'0 0.0
2017-Nov-04 01:30N 35°24' E 139°50'0 0.0
2017-Nov-04 01:00N 35°24' E 139°50'0 0.0
2017-Nov-04 00:30N 35°24' E 139°50'0 0.0
2017-Nov-04 00:00N 35°24' E 139°50'0 0.1
2017-Nov-03 23:30N 35°24' E 139°51'0 0.0
2017-Nov-03 23:00N 35°24' E 139°51'0 0.0
2017-Nov-03 22:30N 35°24' E 139°51'0 0.0
2017-Nov-03 22:00N 35°24' E 139°51'0 0.0
2017-Nov-03 21:30N 35°24' E 139°51'0 0.0
2017-Nov-03 21:00N 35°24' E 139°51'0 0.0
2017-Nov-03 20:30N 35°24' E 139°51'0 0.0
2017-Nov-03 20:00N 35°24' E 139°51'0 0.0
2017-Nov-03 19:30N 35°24' E 139°51'0 0.0
2017-Nov-03 19:00N 35°24' E 139°51'0 0.1
2017-Nov-03 18:30N 35°24' E 139°51'0 0.2
2017-Nov-03 18:00N 35°24' E 139°50'3 5.2
2017-Nov-03 17:30N 35°22' E 139°53'1 0.0
2017-Nov-02 08:38N 35°22' E 139°54'0 0.3
2017-Nov-02 08:31N 35°22' E 139°54'0 0.0
2017-Nov-02 08:00N 35°22' E 139°54'1 2.1
2017-Nov-02 07:28N 35°22' E 139°52'2 4.6
2017-Nov-02 07:00N 35°23' E 139°50'0 0.7
2017-Nov-02 06:30N 35°24' E 139°50'0 0.0
2017-Nov-02 05:59N 35°24' E 139°50'0 0.0
2017-Nov-02 05:30N 35°24' E 139°50'0 0.0
2017-Nov-02 05:00N 35°24' E 139°50'0 0.0
2017-Nov-02 04:29N 35°24' E 139°50'0 0.2
2017-Nov-02 04:00N 35°24' E 139°50'1 1.7
2017-Nov-02 03:30N 35°23' E 139°49'2 4.7
2017-Nov-02 03:00N 35°23' E 139°46'3 6.8
2017-Nov-02 02:30N 35°20' E 139°44'4 6.9
2017-Nov-02 02:00N 35°17' E 139°46'3 6.4
2017-Nov-02 01:30N 35°13' E 139°47'3 6.2
2017-Nov-02 01:00N 35°10' E 139°47'3 5.6
2017-Nov-02 00:30N 35°08' E 139°47'3 5.5
2017-Nov-02 00:00N 35°05' E 139°46'1 2.4
2017-Nov-01 23:30N 35°04' E 139°45'4 7.4
2017-Nov-01 23:00N 35°01' E 139°42'4 6.8
2017-Nov-01 22:29N 34°59' E 139°39'4 8.5
2017-Nov-01 21:58N 34°57' E 139°34'  

Dump ship's entire track history